createdAt,value
2023-04-21T00:02:25.355Z,16.97
2023-04-21T00:04:52.438Z,13.87
2023-04-21T00:07:20.265Z,18.97
2023-04-21T00:09:47.304Z,12.57
2023-04-21T00:12:14.185Z,15.40
2023-04-21T00:14:40.831Z,17.37
2023-04-21T00:17:07.512Z,15.47
2023-04-21T00:19:35.250Z,13.50
2023-04-21T00:22:04.518Z,18.10
2023-04-21T00:24:31.180Z,13.60
2023-04-21T00:26:57.830Z,13.97
2023-04-21T00:29:24.567Z,12.83
2023-04-21T00:31:51.325Z,11.23
2023-04-21T00:34:18.051Z,12.43
2023-04-21T00:36:44.723Z,17.67
2023-04-21T00:39:11.552Z,12.00
2023-04-21T00:41:42.598Z,11.73
2023-04-21T00:44:10.528Z,12.63
2023-04-21T00:46:38.572Z,13.53
2023-04-21T00:49:07.708Z,14.20
2023-04-21T00:51:36.163Z,14.63
2023-04-21T00:54:05.729Z,12.70
2023-04-21T00:56:34.800Z,15.77
2023-04-21T00:59:02.471Z,14.30
2023-04-21T01:01:30.898Z,10.13
2023-04-21T01:03:59.549Z,18.73
2023-04-21T01:06:34.229Z,11.87
2023-04-21T01:09:01.798Z,18.53
2023-04-21T01:11:28.584Z,18.27
2023-04-21T01:13:55.792Z,10.63
2023-04-21T01:16:24.927Z,15.77
2023-04-21T01:18:55.296Z,11.60
2023-04-21T01:21:22.394Z,8.83
2023-04-21T01:23:49.223Z,10.90
2023-04-21T01:26:21.282Z,11.10
2023-04-21T01:28:48.858Z,15.00
2023-04-21T01:31:16.960Z,15.03
2023-04-21T01:33:44.624Z,10.27
2023-04-21T01:36:11.250Z,8.67
2023-04-21T01:38:40.393Z,17.67
2023-04-21T01:41:07.243Z,10.80
2023-04-21T01:43:34.592Z,11.57
2023-04-21T01:46:01.353Z,13.83
2023-04-21T01:48:28.162Z,15.33
2023-04-21T01:50:54.896Z,9.00
2023-04-21T01:53:21.645Z,13.57
2023-04-21T01:55:48.337Z,11.70
2023-04-21T01:58:15.116Z,16.23
2023-04-21T02:00:41.806Z,10.47
2023-04-21T02:03:08.579Z,8.33
2023-04-21T02:05:35.355Z,13.67
2023-04-21T02:08:02.078Z,8.80
2023-04-21T02:10:28.818Z,8.43
2023-04-21T02:12:55.581Z,14.80
2023-04-21T02:15:22.282Z,14.73
2023-04-21T02:17:49.009Z,10.70
2023-04-21T02:20:15.962Z,12.87
2023-04-21T02:22:42.650Z,9.87
2023-04-21T02:25:09.635Z,9.97
2023-04-21T02:27:36.410Z,10.50
2023-04-21T02:30:07.538Z,9.27
2023-04-21T02:32:34.422Z,13.43
2023-04-21T02:35:01.744Z,14.73
2023-04-21T02:37:29.046Z,9.30
2023-04-21T02:39:55.841Z,13.60
2023-04-21T02:42:22.732Z,11.20
2023-04-21T02:44:49.658Z,13.27
2023-04-21T02:47:17.052Z,11.33
2023-04-21T02:49:44.116Z,16.27
2023-04-21T02:52:10.727Z,12.63
2023-04-21T02:54:37.463Z,9.97
2023-04-21T02:57:15.448Z,10.83
2023-04-21T02:59:42.145Z,14.10
2023-04-21T03:02:09.087Z,13.20
2023-04-21T03:04:36.276Z,11.20
2023-04-21T03:07:03.054Z,9.67
2023-04-21T03:09:29.750Z,10.70
2023-04-21T03:11:56.524Z,14.17
2023-04-21T03:14:23.302Z,9.53
2023-04-21T03:16:50.039Z,10.07
2023-04-21T03:19:20.987Z,11.13
2023-04-21T03:21:47.925Z,14.53
2023-04-21T03:24:14.710Z,12.67
2023-04-21T03:26:41.501Z,14.40
2023-04-21T03:29:08.205Z,11.93
2023-04-21T03:31:34.953Z,12.83
2023-04-21T03:34:01.711Z,8.67
2023-04-21T03:36:28.358Z,7.83
2023-04-21T03:38:56.450Z,12.47
2023-04-21T03:41:25.962Z,10.57
2023-04-21T03:43:53.030Z,7.37
2023-04-21T03:46:21.311Z,8.77
2023-04-21T03:48:48.466Z,12.60
2023-04-21T03:51:17.830Z,10.97
2023-04-21T03:53:44.745Z,8.20
2023-04-21T03:56:11.508Z,13.97
2023-04-21T03:58:38.204Z,11.47
2023-04-21T04:01:06.999Z,7.73
2023-04-21T04:03:34.588Z,8.80
2023-04-21T04:06:04.030Z,9.63
2023-04-21T04:08:31.543Z,8.10
2023-04-21T04:10:58.373Z,10.83
2023-04-21T04:13:26.511Z,7.50
2023-04-21T04:15:53.791Z,12.10
2023-04-21T04:18:21.033Z,9.40
2023-04-21T04:20:47.807Z,11.47
2023-04-21T04:23:14.494Z,8.67
2023-04-21T04:25:41.216Z,13.10
2023-04-21T04:28:08.002Z,11.00
2023-04-21T04:30:35.418Z,17.03
2023-04-21T04:33:02.673Z,13.37
2023-04-21T04:35:29.496Z,9.00
2023-04-21T04:37:57.106Z,11.33
2023-04-21T04:40:23.840Z,13.13
2023-04-21T04:42:51.585Z,13.50
2023-04-21T04:45:22.068Z,9.20
2023-04-21T04:47:51.966Z,9.77
2023-04-21T04:50:18.725Z,11.33
2023-04-21T04:52:47.193Z,11.83
2023-04-21T04:55:14.322Z,8.57
2023-04-21T04:57:41.325Z,8.80
2023-04-21T05:00:11.421Z,11.23
2023-04-21T05:02:38.774Z,7.80
2023-04-21T05:05:07.118Z,10.60
2023-04-21T05:07:35.074Z,10.88
2023-04-21T05:10:02.541Z,7.43
2023-04-21T05:12:29.331Z,11.60
2023-04-21T05:14:56.167Z,10.07
2023-04-21T05:17:22.839Z,9.57
2023-04-21T05:19:49.612Z,7.63
2023-04-21T05:22:16.266Z,10.20
2023-04-21T05:24:44.050Z,10.57
2023-04-21T05:27:10.731Z,11.50
2023-04-21T05:29:37.864Z,7.83
2023-04-21T05:32:05.671Z,12.80
2023-04-21T05:34:32.529Z,8.93
2023-04-21T05:36:59.210Z,13.63
2023-04-21T05:39:27.834Z,9.67
2023-04-21T05:41:54.608Z,13.80
2023-04-21T05:44:21.649Z,7.53
2023-04-21T05:46:48.481Z,10.23
2023-04-21T05:49:15.150Z,8.80
2023-04-21T05:51:41.797Z,10.97
2023-04-21T05:54:08.543Z,8.80
2023-04-21T05:56:35.260Z,9.00
2023-04-21T05:59:01.971Z,9.73
2023-04-21T06:01:28.772Z,7.87
2023-04-21T06:03:56.923Z,8.63
2023-04-21T06:06:25.667Z,9.10
2023-04-21T06:08:52.433Z,7.37
2023-04-21T06:11:19.303Z,6.97
2023-04-21T06:13:45.999Z,6.37
2023-04-21T06:16:12.774Z,7.83
2023-04-21T06:18:39.409Z,9.70
2023-04-21T06:21:06.129Z,11.10
2023-04-21T06:23:33.356Z,19.43
2023-04-21T06:26:07.263Z,9.93
2023-04-21T06:28:35.696Z,11.83
2023-04-21T06:31:04.895Z,5.83
2023-04-21T06:33:33.739Z,9.57
2023-04-21T06:36:00.610Z,10.87
2023-04-21T06:38:27.507Z,7.20
2023-04-21T06:40:54.377Z,10.23
2023-04-21T06:43:21.142Z,10.40
2023-04-21T06:45:47.904Z,6.27
2023-04-21T06:48:14.647Z,6.47
2023-04-21T06:50:44.263Z,7.23
2023-04-21T06:53:31.570Z,6.80
2023-04-21T06:55:58.733Z,6.67
2023-04-21T06:58:27.913Z,6.10
2023-04-21T07:00:54.708Z,7.93
2023-04-21T07:03:21.623Z,11.87
2023-04-21T07:05:48.436Z,10.67
2023-04-21T07:08:15.250Z,9.80
2023-04-21T07:10:42.394Z,12.13
2023-04-21T07:13:10.114Z,11.83
2023-04-21T07:15:36.955Z,15.43
2023-04-21T07:18:03.898Z,11.67
2023-04-21T07:20:30.633Z,11.13
2023-04-21T07:22:57.410Z,8.67
2023-04-21T07:25:24.432Z,8.87
2023-04-21T07:27:51.172Z,10.43
2023-04-21T07:30:18.215Z,14.43
2023-04-21T07:32:45.060Z,11.53
2023-04-21T07:35:11.805Z,12.77
2023-04-21T07:37:40.053Z,13.97
2023-04-21T07:40:11.613Z,12.27
2023-04-21T07:42:38.600Z,9.30
2023-04-21T07:45:05.693Z,16.80
2023-04-21T07:47:33.537Z,10.83
2023-04-21T07:50:00.556Z,10.90
2023-04-21T07:52:27.456Z,7.57
2023-04-21T07:54:54.190Z,8.87
2023-04-21T07:57:20.976Z,7.97
2023-04-21T07:59:47.740Z,9.77
2023-04-21T08:02:14.481Z,12.40
2023-04-21T08:04:41.425Z,10.40
2023-04-21T08:07:10.088Z,11.53
2023-04-21T08:09:36.940Z,9.63
2023-04-21T08:12:04.322Z,12.10
2023-04-21T08:14:32.305Z,9.43
2023-04-21T08:16:59.654Z,19.40
2023-04-21T08:19:26.434Z,9.00
2023-04-21T08:21:53.213Z,8.97
2023-04-21T08:24:20.412Z,10.37
2023-04-21T08:26:47.376Z,9.30
2023-04-21T08:29:14.167Z,8.93
2023-04-21T08:31:41.354Z,10.13
2023-04-21T08:34:08.292Z,9.40
2023-04-21T08:36:35.187Z,8.17
2023-04-21T08:39:02.166Z,9.43
2023-04-21T08:41:29.016Z,12.20
2023-04-21T08:43:55.773Z,13.47
2023-04-21T08:46:23.866Z,7.80
2023-04-21T08:48:51.119Z,13.67
2023-04-21T08:51:23.827Z,9.90
2023-04-21T08:53:50.651Z,11.13
2023-04-21T08:56:17.627Z,10.13
2023-04-21T08:58:44.349Z,10.77
2023-04-21T09:01:12.195Z,13.50
2023-04-21T09:03:39.820Z,11.30
2023-04-21T09:06:09.772Z,10.47
2023-04-21T09:08:43.617Z,11.57
2023-04-21T09:11:14.521Z,11.77
2023-04-21T09:13:43.000Z,14.40
2023-04-21T09:16:18.545Z,10.50
2023-04-21T09:18:45.311Z,10.10
2023-04-21T09:21:21.279Z,15.27
2023-04-21T09:23:50.188Z,11.67
2023-04-21T09:26:18.664Z,10.90
2023-04-21T09:28:47.361Z,9.93
2023-04-21T09:31:19.958Z,17.83
2023-04-21T09:33:57.922Z,11.33
2023-04-21T09:36:29.068Z,11.03
2023-04-21T09:41:33.005Z,12.00
2023-04-21T09:44:04.672Z,11.30
2023-04-21T09:46:36.261Z,12.17
2023-04-21T09:49:04.446Z,14.00
2023-04-21T09:52:05.315Z,17.87
2023-04-21T09:54:29.795Z,18.60
2023-04-21T09:57:00.215Z,13.70
2023-04-21T09:59:30.839Z,9.87
2023-04-21T10:02:00.044Z,12.80
2023-04-21T10:04:32.425Z,10.63
2023-04-21T10:07:03.506Z,10.17
2023-04-21T10:09:51.184Z,9.77
2023-04-21T10:12:19.511Z,13.60
2023-04-21T10:14:51.422Z,10.00
2023-04-21T10:17:18.266Z,8.03
2023-04-21T10:19:59.958Z,12.23
2023-04-21T10:22:29.530Z,9.03
2023-04-21T10:24:57.346Z,9.30
2023-04-21T10:27:39.595Z,9.63
2023-04-21T10:30:23.779Z,9.73
2023-04-21T10:33:06.456Z,10.60
2023-04-21T10:35:59.264Z,17.60
2023-04-21T10:38:41.593Z,8.97
2023-04-21T10:41:29.106Z,9.33
2023-04-21T10:44:12.187Z,9.30
2023-04-21T10:46:50.708Z,11.00
2023-04-21T10:49:25.641Z,13.93
2023-04-21T10:51:59.207Z,13.80
2023-04-21T10:54:28.623Z,9.27
2023-04-21T10:56:56.644Z,10.00
2023-04-21T10:59:24.870Z,9.67
2023-04-21T11:01:53.782Z,11.17
2023-04-21T11:04:23.176Z,13.70
2023-04-21T11:07:05.555Z,8.20
2023-04-21T11:09:32.478Z,11.57
2023-04-21T11:12:04.921Z,10.47
2023-04-21T11:14:31.622Z,12.00
2023-04-21T11:16:58.457Z,12.30
2023-04-21T11:19:26.141Z,12.33
2023-04-21T11:21:55.877Z,13.80
2023-04-21T11:24:22.787Z,10.00
2023-04-21T11:26:49.715Z,9.73
2023-04-21T11:29:17.376Z,11.80
2023-04-21T11:31:47.929Z,13.17
2023-04-21T11:34:16.207Z,14.70
2023-04-21T11:36:44.764Z,11.00
2023-04-21T11:39:19.571Z,9.40
2023-04-21T11:41:50.715Z,10.37
2023-04-21T11:44:37.023Z,12.70
2023-04-21T11:47:17.290Z,10.50
2023-04-21T11:49:58.506Z,12.23
2023-04-21T11:52:25.196Z,8.87
2023-04-21T11:55:03.512Z,15.73
2023-04-21T11:57:31.433Z,9.10
2023-04-21T11:59:59.483Z,10.87
2023-04-21T12:02:35.614Z,13.50
2023-04-21T12:05:04.411Z,8.90
2023-04-21T12:07:32.666Z,13.73
2023-04-21T12:10:00.494Z,9.43
2023-04-21T12:12:27.780Z,13.97
2023-04-21T12:14:55.251Z,9.70
2023-04-21T12:17:22.479Z,9.37
2023-04-21T12:19:49.835Z,10.97
2023-04-21T12:22:23.494Z,13.07
2023-04-21T12:24:50.370Z,14.23
2023-04-21T12:27:17.219Z,10.77
2023-04-21T12:29:44.001Z,12.33
2023-04-21T12:32:11.148Z,9.40
2023-04-21T12:34:38.042Z,9.77
2023-04-21T12:37:05.001Z,18.57
2023-04-21T12:39:32.288Z,12.00
2023-04-21T12:41:59.596Z,8.30
2023-04-21T12:44:26.403Z,14.27
2023-04-21T12:46:53.638Z,13.93
2023-04-21T12:49:20.673Z,10.27
2023-04-21T12:51:48.953Z,7.90
2023-04-21T12:54:16.029Z,8.63
2023-04-21T12:56:43.292Z,10.27
2023-04-21T12:59:11.201Z,9.13
2023-04-21T13:01:39.244Z,9.27
2023-04-21T13:04:06.353Z,14.03
2023-04-21T13:06:33.807Z,12.50
2023-04-21T13:09:00.891Z,9.80
2023-04-21T13:11:27.906Z,9.97
2023-04-21T13:13:54.964Z,16.07
2023-04-21T13:16:22.674Z,14.10
2023-04-21T13:18:49.581Z,12.00
2023-04-21T13:21:16.712Z,10.13
2023-04-21T13:23:43.897Z,13.30
2023-04-21T13:26:10.935Z,13.03
2023-04-21T13:28:37.937Z,11.13
2023-04-21T13:31:05.183Z,9.40
2023-04-21T13:33:34.980Z,14.53
2023-04-21T13:36:03.534Z,9.77
2023-04-21T13:38:30.748Z,11.70
2023-04-21T13:40:57.948Z,10.60
2023-04-21T13:43:24.760Z,8.80
2023-04-21T13:45:52.426Z,13.00
2023-04-21T13:48:21.227Z,11.27
2023-04-21T13:50:49.222Z,14.43
2023-04-21T13:53:21.121Z,15.47
2023-04-21T13:55:48.633Z,9.57
2023-04-21T13:58:16.668Z,12.67
2023-04-21T14:00:43.683Z,10.87
2023-04-21T14:03:11.620Z,15.40
2023-04-21T14:05:39.224Z,14.97
2023-04-21T14:08:06.417Z,16.77
2023-04-21T14:10:33.349Z,11.47
2023-04-21T14:13:00.308Z,12.67
2023-04-21T14:15:27.135Z,14.27
2023-04-21T14:17:54.099Z,16.00
2023-04-21T14:20:21.149Z,12.43
2023-04-21T14:22:48.224Z,15.97
2023-04-21T14:25:15.175Z,14.10
2023-04-21T14:27:42.020Z,13.47
2023-04-21T14:30:10.535Z,16.53
2023-04-21T14:32:37.505Z,10.90
2023-04-21T14:35:05.590Z,17.67
2023-04-21T14:37:33.158Z,14.33
2023-04-21T14:40:00.051Z,12.17
2023-04-21T14:42:27.005Z,13.63
2023-04-21T14:44:54.074Z,10.87
2023-04-21T14:47:21.967Z,9.83
2023-04-21T14:49:55.029Z,13.90
2023-04-21T14:52:24.640Z,9.83
2023-04-21T14:54:51.629Z,9.83
2023-04-21T14:57:21.079Z,14.03
2023-04-21T14:59:52.277Z,12.00
2023-04-21T15:02:20.655Z,10.60
2023-04-21T15:04:47.699Z,14.73
2023-04-21T15:07:16.271Z,15.40
2023-04-21T15:09:45.829Z,14.07
2023-04-21T15:12:14.688Z,16.60
2023-04-21T15:14:41.632Z,17.07
2023-04-21T15:17:08.795Z,17.50
2023-04-21T15:19:36.515Z,10.10
2023-04-21T15:22:04.828Z,14.90
2023-04-21T15:24:31.941Z,16.10
2023-04-21T15:26:58.823Z,17.33
2023-04-21T15:29:25.641Z,14.93
2023-04-21T15:31:52.490Z,12.53
2023-04-21T15:34:19.378Z,16.40
2023-04-21T15:36:46.112Z,13.07
2023-04-21T15:39:15.668Z,11.90
2023-04-21T15:41:42.416Z,20.33
2023-04-21T15:44:09.188Z,17.87
2023-04-21T15:46:36.129Z,11.73
2023-04-21T15:49:03.275Z,15.33
2023-04-21T15:51:30.066Z,15.60
2023-04-21T15:53:56.820Z,13.90
2023-04-21T15:56:26.840Z,16.87
2023-04-21T15:58:53.612Z,12.77
2023-04-21T16:01:21.904Z,11.93
2023-04-21T16:03:49.420Z,15.00
2023-04-21T16:06:21.403Z,13.63
2023-04-21T16:08:48.329Z,22.43
2023-04-21T16:11:15.340Z,15.17
2023-04-21T16:13:42.432Z,17.13
2023-04-21T16:16:09.451Z,14.10
2023-04-21T16:18:36.233Z,13.63
2023-04-21T16:21:03.394Z,18.40
2023-04-21T16:23:30.347Z,15.50
2023-04-21T16:25:57.147Z,13.63
2023-04-21T16:28:23.976Z,16.33
2023-04-21T16:30:50.732Z,12.93
2023-04-21T16:33:17.534Z,12.97
2023-04-21T16:35:44.428Z,16.00
2023-04-21T16:38:11.680Z,18.07
2023-04-21T16:40:38.655Z,12.93
2023-04-21T16:43:05.409Z,15.97
2023-04-21T16:45:32.286Z,13.97
2023-04-21T16:47:59.110Z,17.50
2023-04-21T16:50:26.884Z,14.87
2023-04-21T16:52:53.990Z,15.10
2023-04-21T16:55:21.013Z,15.17
2023-04-21T16:57:48.326Z,17.23
2023-04-21T17:00:15.476Z,14.57
2023-04-21T17:02:42.428Z,16.27
2023-04-21T17:05:09.864Z,12.83
2023-04-21T17:07:39.374Z,14.50
2023-04-21T17:10:07.400Z,15.17
2023-04-21T17:12:34.175Z,13.07
2023-04-21T17:15:00.959Z,18.17
2023-04-21T17:17:33.520Z,14.53
2023-04-21T17:20:01.116Z,17.50
2023-04-21T17:22:28.159Z,14.23
2023-04-21T17:24:55.425Z,15.63
2023-04-21T17:27:22.764Z,9.47
2023-04-21T17:29:50.004Z,13.97
2023-04-21T17:32:17.242Z,12.80
2023-04-21T17:34:44.519Z,15.10
2023-04-21T17:37:12.138Z,10.30
2023-04-21T17:39:39.046Z,8.37
2023-04-21T17:42:05.901Z,14.13
2023-04-21T17:44:33.041Z,11.93
2023-04-21T17:47:08.139Z,8.77
2023-04-21T17:49:36.952Z,11.90
2023-04-21T17:52:04.009Z,10.43
2023-04-21T17:54:30.894Z,10.33
2023-04-21T17:56:58.210Z,11.00
2023-04-21T17:59:25.693Z,8.43
2023-04-21T18:01:52.450Z,11.00
2023-04-21T18:04:19.406Z,12.07
2023-04-21T18:06:46.484Z,9.43
2023-04-21T18:09:13.282Z,10.90
2023-04-21T18:11:40.123Z,11.60
2023-04-21T18:14:07.584Z,10.10
2023-04-21T18:16:34.764Z,8.47
2023-04-21T18:19:01.697Z,8.37
2023-04-21T18:21:28.740Z,15.37
2023-04-21T18:23:56.084Z,12.33
2023-04-21T18:26:22.991Z,11.47
2023-04-21T18:28:49.757Z,12.03
2023-04-21T18:31:16.634Z,7.73
2023-04-21T18:33:43.748Z,8.50
2023-04-21T18:36:11.116Z,11.13
2023-04-21T18:38:38.426Z,8.30
2023-04-21T18:41:05.206Z,8.10
2023-04-21T18:43:34.507Z,18.00
2023-04-21T18:46:01.275Z,11.80
2023-04-21T18:48:28.146Z,10.67
2023-04-21T18:50:54.985Z,6.80
2023-04-21T18:53:21.701Z,7.50
2023-04-21T18:55:48.579Z,7.10
2023-04-21T18:58:16.070Z,7.37
2023-04-21T19:00:42.828Z,7.37
2023-04-21T19:03:10.259Z,6.50
2023-04-21T19:05:38.954Z,10.33
2023-04-21T19:08:05.876Z,13.77
2023-04-21T19:10:34.645Z,8.47
2023-04-21T19:13:01.563Z,10.10
2023-04-21T19:15:28.362Z,7.80
2023-04-21T19:17:56.107Z,6.53
2023-04-21T19:20:22.933Z,8.00
2023-04-21T19:22:49.677Z,8.30
2023-04-21T19:25:17.563Z,4.47
2023-04-21T19:27:44.573Z,7.20
2023-04-21T19:30:11.565Z,6.03
2023-04-21T19:32:38.658Z,7.63
2023-04-21T19:35:05.863Z,3.67
2023-04-21T19:37:35.039Z,5.53
2023-04-21T19:40:03.415Z,6.83
2023-04-21T19:42:30.601Z,9.37
2023-04-21T19:44:57.446Z,7.93
2023-04-21T19:47:27.412Z,6.97
2023-04-21T19:49:54.142Z,5.63
2023-04-21T19:52:22.460Z,7.03
2023-04-21T19:54:49.190Z,7.90
2023-04-21T19:57:16.158Z,7.63
2023-04-21T19:59:43.153Z,5.57
2023-04-21T20:02:10.264Z,6.10
2023-04-21T20:04:37.549Z,8.77
2023-04-21T20:07:04.946Z,5.57
2023-04-21T20:09:32.399Z,10.37
2023-04-21T20:11:59.169Z,6.80
2023-04-21T20:14:25.930Z,8.00
2023-04-21T20:16:52.561Z,8.83
2023-04-21T20:19:22.878Z,5.00
2023-04-21T20:21:50.141Z,5.47
2023-04-21T20:24:17.592Z,8.90
2023-04-21T20:26:44.891Z,5.90
2023-04-21T20:29:11.769Z,5.90
2023-04-21T20:31:38.651Z,6.00
2023-04-21T20:34:05.538Z,8.80
2023-04-21T20:36:32.616Z,6.40
2023-04-21T20:39:00.627Z,6.20
2023-04-21T20:41:27.932Z,7.23
2023-04-21T20:43:56.251Z,6.13
2023-04-21T20:46:23.847Z,6.30
2023-04-21T20:48:51.514Z,5.40
2023-04-21T20:51:18.488Z,8.23
2023-04-21T20:53:46.026Z,9.50
2023-04-21T20:56:13.696Z,3.77
2023-04-21T20:58:41.701Z,8.40
2023-04-21T21:01:08.496Z,5.60
2023-04-21T21:03:35.866Z,9.13
2023-04-21T21:06:02.822Z,7.10
2023-04-21T21:08:29.696Z,3.50
2023-04-21T21:10:56.494Z,8.33
2023-04-21T21:13:23.307Z,6.10
2023-04-21T21:15:50.338Z,9.23
2023-04-21T21:18:17.138Z,7.00
2023-04-21T21:20:44.101Z,3.67
2023-04-21T21:23:11.874Z,7.37
2023-04-21T21:25:38.948Z,4.27
2023-04-21T21:28:06.383Z,6.43
2023-04-21T21:30:33.280Z,4.97
2023-04-21T21:33:00.026Z,3.80
2023-04-21T21:35:27.949Z,7.57
2023-04-21T21:37:58.199Z,8.03
2023-04-21T21:40:24.961Z,5.17
2023-04-21T21:42:51.727Z,5.00
2023-04-21T21:45:18.444Z,3.43
2023-04-21T21:47:45.972Z,7.27
2023-04-21T21:50:12.846Z,5.00
2023-04-21T21:52:40.313Z,5.43
2023-04-21T21:55:08.276Z,9.73
2023-04-21T21:57:35.590Z,3.77
2023-04-21T22:00:04.456Z,4.63
2023-04-21T22:02:31.343Z,4.10
2023-04-21T22:04:58.355Z,3.17
2023-04-21T22:07:25.281Z,5.13
2023-04-21T22:09:53.177Z,10.57
2023-04-21T22:12:20.023Z,6.87
2023-04-21T22:14:48.192Z,6.27
2023-04-21T22:17:16.130Z,5.03
2023-04-21T22:19:43.215Z,5.70
2023-04-21T22:22:13.274Z,3.30
2023-04-21T22:24:40.366Z,4.57
2023-04-21T22:27:07.086Z,5.63
2023-04-21T22:29:34.151Z,8.87
2023-04-21T22:32:02.486Z,7.20
2023-04-21T22:34:29.252Z,8.10
2023-04-21T22:36:57.758Z,5.07
2023-04-21T22:39:28.689Z,3.87
2023-04-21T22:41:55.679Z,5.97
2023-04-21T22:44:22.975Z,4.03
2023-04-21T22:46:51.955Z,3.30
2023-04-21T22:49:19.032Z,4.23
2023-04-21T22:51:47.341Z,4.60
2023-04-21T22:54:14.016Z,3.30
2023-04-21T22:56:41.364Z,5.17
2023-04-21T22:59:08.259Z,5.53
2023-04-21T23:01:35.618Z,5.63
2023-04-21T23:04:03.624Z,3.27
2023-04-21T23:06:32.187Z,4.43
2023-04-21T23:08:58.886Z,4.47
2023-04-21T23:11:25.822Z,5.43
2023-04-21T23:13:52.566Z,4.87
2023-04-21T23:16:19.882Z,6.07
2023-04-21T23:18:47.859Z,3.93
2023-04-21T23:21:14.791Z,5.83
2023-04-21T23:23:41.813Z,5.03
2023-04-21T23:26:08.551Z,4.67
2023-04-21T23:28:35.970Z,5.60
2023-04-21T23:31:02.789Z,3.47
2023-04-21T23:33:29.506Z,7.93
2023-04-21T23:35:56.501Z,7.03
2023-04-21T23:38:23.150Z,6.20
2023-04-21T23:40:50.512Z,8.70
2023-04-21T23:43:17.520Z,5.97
2023-04-21T23:45:44.349Z,7.67
2023-04-21T23:48:11.736Z,7.83
2023-04-21T23:50:38.598Z,5.80
2023-04-21T23:53:05.729Z,5.57
2023-04-21T23:55:32.475Z,3.80
2023-04-21T23:57:59.175Z,6.50
